Strona główna
METAR-TAF:

METAR-TAF

Lotnisko :

Port lotniczy Shoreham

Brighton, Anglia

Szerokość geograficzna: 50-50N, Długość geograficzna: 000-17W, wysokość: 2 m

Aktualna obserwacja pogody

Raport powstał 37 minut temu, godzina 11:50 UTC
Wiatr 23 kt od północno-północny wschód w porywach dochodzący do 33 kt
Temperatura 12°C
Wilgotność 50%
Ciśnienie 1026 hPa
Widzialność 10 km lub więcej
Brak chmur poniżej 1500 m i brak chmur cumulonimbus

METAR: EGKA 281150Z 02023G33KT CAVOK 12/02 Q1026

czas: 12:27 (12:27 UTC)

Prognoza

Raport powstał 1 godzina i 26 minut temu, godzina 11:01 UTC
Prognoza ważna od 28 godzina 12 UTC do 28 godzina 19 UTC
Wiatr 20 kt od północno-północny wschód w porywach dochodzący do 35 kt
Widzialność 10 km lub więcej
Brak chmur poniżej 1500 m i brak chmur cumulonimbus
Stopniowe zmiany
od 28 godzina 14 UTC do 28 godzina 17 UTC
Przerywane chmury na wysokości 3000 ft

TAF: EGKA 281101Z 2812/2819 03020G35KT CAVOK BECMG 2814/2817 BKN030

Obserwacja i prognoza pogody dla ponad 4000 lotnisk (raport METAR i TAF).

Dostępne stacje oznaczono żółtymi i czerwonymi punktami na mapie.

Najedź kursorem aby zobaczyć nazwę stacji.

Kliknij aby zobaczyć obserwacje i prognozy pogody.

Aby zmienić mapę: kliknij na zielony przycisk z czarnym krzyżykiem, aby powiększyć; na zielony przycisk z myślnikiem, aby pomniejszyć; na zielone strzałki, aby przejść do map sąsiednich.


METAR-TAF: